sensor_id;sensor_type;location;lat;lon;timestamp;temperature;humidity
25708;DHT22;13567;61.652;17.100;2022-08-19T00:01:47;15.10;99.90
25708;DHT22;13567;61.652;17.100;2022-08-19T00:04:23;15.10;99.90
25708;DHT22;13567;61.652;17.100;2022-08-19T00:06:51;15.10;99.90
25708;DHT22;13567;61.652;17.100;2022-08-19T00:09:20;15.10;99.90
25708;DHT22;13567;61.652;17.100;2022-08-19T00:11:47;15.20;99.90
25708;DHT22;13567;61.652;17.100;2022-08-19T00:14:16;15.20;99.90
25708;DHT22;13567;61.652;17.100;2022-08-19T00:16:45;15.20;99.90
25708;DHT22;13567;61.652;17.100;2022-08-19T00:19:14;15.20;99.90
25708;DHT22;13567;61.652;17.100;2022-08-19T00:21:42;15.10;99.90
25708;DHT22;13567;61.652;17.100;2022-08-19T00:24:11;15.10;99.90
25708;DHT22;13567;61.652;17.100;2022-08-19T00:26:43;15.20;99.90
25708;DHT22;13567;61.652;17.100;2022-08-19T00:29:14;15.20;99.90
25708;DHT22;13567;61.652;17.100;2022-08-19T00:31:42;15.20;99.90
25708;DHT22;13567;61.652;17.100;2022-08-19T00:34:11;15.20;99.90
25708;DHT22;13567;61.652;17.100;2022-08-19T00:36:39;15.20;99.90
25708;DHT22;13567;61.652;17.100;2022-08-19T00:39:07;15.20;99.90
25708;DHT22;13567;61.652;17.100;2022-08-19T00:41:35;15.20;99.90
25708;DHT22;13567;61.652;17.100;2022-08-19T00:46:32;15.20;99.90
25708;DHT22;13567;61.652;17.100;2022-08-19T00:49:00;15.20;99.90
25708;DHT22;13567;61.652;17.100;2022-08-19T00:51:30;15.20;99.90
25708;DHT22;13567;61.652;17.100;2022-08-19T00:53:59;15.20;99.90
25708;DHT22;13567;61.652;17.100;2022-08-19T00:56:28;15.20;99.90
25708;DHT22;13567;61.652;17.100;2022-08-19T00:58:56;15.20;99.90
25708;DHT22;13567;61.652;17.100;2022-08-19T01:01:25;15.30;99.90
25708;DHT22;13567;61.652;17.100;2022-08-19T01:03:52;15.30;99.90
25708;DHT22;13567;61.652;17.100;2022-08-19T01:06:25;15.30;99.90
25708;DHT22;13567;61.652;17.100;2022-08-19T01:08:54;15.30;99.90
25708;DHT22;13567;61.652;17.100;2022-08-19T01:11:21;15.30;99.90
25708;DHT22;13567;61.652;17.100;2022-08-19T01:13:48;15.40;99.90
25708;DHT22;13567;61.652;17.100;2022-08-19T01:16:18;15.40;99.90
25708;DHT22;13567;61.652;17.100;2022-08-19T01:18:46;15.40;99.90
25708;DHT22;13567;61.652;17.100;2022-08-19T01:21:26;15.40;99.90
25708;DHT22;13567;61.652;17.100;2022-08-19T01:23:54;15.30;99.90
25708;DHT22;13567;61.652;17.100;2022-08-19T01:26:23;15.40;99.90
25708;DHT22;13567;61.652;17.100;2022-08-19T01:28:54;15.40;99.90
25708;DHT22;13567;61.652;17.100;2022-08-19T01:31:28;15.40;99.90
25708;DHT22;13567;61.652;17.100;2022-08-19T01:34:00;15.40;99.90
25708;DHT22;13567;61.652;17.100;2022-08-19T01:36:37;15.40;99.90
25708;DHT22;13567;61.652;17.100;2022-08-19T01:39:07;15.40;99.90
25708;DHT22;13567;61.652;17.100;2022-08-19T01:41:34;15.40;99.90
25708;DHT22;13567;61.652;17.100;2022-08-19T01:44:05;15.50;99.90
25708;DHT22;13567;61.652;17.100;2022-08-19T01:46:46;15.50;99.90
25708;DHT22;13567;61.652;17.100;2022-08-19T01:49:15;15.50;99.90
25708;DHT22;13567;61.652;17.100;2022-08-19T01:51:43;15.50;99.90
25708;DHT22;13567;61.652;17.100;2022-08-19T01:54:12;15.50;99.90
25708;DHT22;13567;61.652;17.100;2022-08-19T01:56:57;15.50;99.90
25708;DHT22;13567;61.652;17.100;2022-08-19T01:59:25;15.50;99.90
25708;DHT22;13567;61.652;17.100;2022-08-19T02:01:52;15.50;99.90
25708;DHT22;13567;61.652;17.100;2022-08-19T02:04:19;15.50;99.90
25708;DHT22;13567;61.652;17.100;2022-08-19T02:06:47;15.50;99.90
25708;DHT22;13567;61.652;17.100;2022-08-19T02:09:14;15.50;99.90
25708;DHT22;13567;61.652;17.100;2022-08-19T02:11:43;15.50;99.90
25708;DHT22;13567;61.652;17.100;2022-08-19T02:14:10;15.40;99.90
25708;DHT22;13567;61.652;17.100;2022-08-19T02:16:37;15.40;99.90
25708;DHT22;13567;61.652;17.100;2022-08-19T02:19:05;15.40;99.90
25708;DHT22;13567;61.652;17.100;2022-08-19T02:21:32;15.50;99.90
25708;DHT22;13567;61.652;17.100;2022-08-19T02:24:00;15.40;99.90
25708;DHT22;13567;61.652;17.100;2022-08-19T02:26:27;15.50;99.90
25708;DHT22;13567;61.652;17.100;2022-08-19T02:28:55;15.50;99.90
25708;DHT22;13567;61.652;17.100;2022-08-19T02:31:24;15.50;99.90
25708;DHT22;13567;61.652;17.100;2022-08-19T02:33:52;15.50;99.90
25708;DHT22;13567;61.652;17.100;2022-08-19T02:36:24;15.50;99.90
25708;DHT22;13567;61.652;17.100;2022-08-19T02:38:51;15.50;99.90
25708;DHT22;13567;61.652;17.100;2022-08-19T02:41:39;15.40;99.90
25708;DHT22;13567;61.652;17.100;2022-08-19T02:44:06;15.50;99.90
25708;DHT22;13567;61.652;17.100;2022-08-19T02:46:53;15.50;99.90
25708;DHT22;13567;61.652;17.100;2022-08-19T02:49:20;15.50;99.90
25708;DHT22;13567;61.652;17.100;2022-08-19T02:51:47;15.50;99.90
25708;DHT22;13567;61.652;17.100;2022-08-19T02:54:15;15.50;99.90
25708;DHT22;13567;61.652;17.100;2022-08-19T02:56:43;15.60;99.90
25708;DHT22;13567;61.652;17.100;2022-08-19T02:59:10;15.60;99.90
25708;DHT22;13567;61.652;17.100;2022-08-19T03:01:40;15.60;99.90
25708;DHT22;13567;61.652;17.100;2022-08-19T03:04:10;15.50;99.90
25708;DHT22;13567;61.652;17.100;2022-08-19T03:06:39;15.60;99.90
25708;DHT22;13567;61.652;17.100;2022-08-19T03:09:07;15.60;99.90
25708;DHT22;13567;61.652;17.100;2022-08-19T03:11:34;15.60;99.90
25708;DHT22;13567;61.652;17.100;2022-08-19T03:14:02;15.60;99.90
25708;DHT22;13567;61.652;17.100;2022-08-19T03:16:31;15.60;99.90
25708;DHT22;13567;61.652;17.100;2022-08-19T03:19:00;15.60;99.90
25708;DHT22;13567;61.652;17.100;2022-08-19T03:21:32;15.60;99.90
25708;DHT22;13567;61.652;17.100;2022-08-19T03:24:05;15.60;99.90
25708;DHT22;13567;61.652;17.100;2022-08-19T03:26:33;15.60;99.90
25708;DHT22;13567;61.652;17.100;2022-08-19T03:29:04;15.60;99.90
25708;DHT22;13567;61.652;17.100;2022-08-19T03:31:34;15.60;99.90
25708;DHT22;13567;61.652;17.100;2022-08-19T03:34:22;15.60;99.90
25708;DHT22;13567;61.652;17.100;2022-08-19T03:36:49;15.70;99.90
25708;DHT22;13567;61.652;17.100;2022-08-19T03:39:16;15.70;99.90
25708;DHT22;13567;61.652;17.100;2022-08-19T03:41:45;15.70;99.90
25708;DHT22;13567;61.652;17.100;2022-08-19T03:44:18;15.70;99.90
25708;DHT22;13567;61.652;17.100;2022-08-19T03:46:49;15.70;99.90
25708;DHT22;13567;61.652;17.100;2022-08-19T03:49:17;15.70;99.90
25708;DHT22;13567;61.652;17.100;2022-08-19T03:51:46;15.80;99.90
25708;DHT22;13567;61.652;17.100;2022-08-19T03:54:16;15.80;99.90
25708;DHT22;13567;61.652;17.100;2022-08-19T03:56:45;15.80;99.90
25708;DHT22;13567;61.652;17.100;2022-08-19T03:59:25;15.80;99.90
25708;DHT22;13567;61.652;17.100;2022-08-19T04:01:55;15.80;99.90
25708;DHT22;13567;61.652;17.100;2022-08-19T04:04:24;15.80;99.90
25708;DHT22;13567;61.652;17.100;2022-08-19T04:06:55;15.80;99.90
25708;DHT22;13567;61.652;17.100;2022-08-19T04:09:23;15.80;99.90
25708;DHT22;13567;61.652;17.100;2022-08-19T04:11:52;15.80;99.90
25708;DHT22;13567;61.652;17.100;2022-08-19T04:14:23;15.80;99.90
25708;DHT22;13567;61.652;17.100;2022-08-19T04:16:52;15.80;99.90
25708;DHT22;13567;61.652;17.100;2022-08-19T04:19:20;15.80;99.90
25708;DHT22;13567;61.652;17.100;2022-08-19T04:21:51;15.80;99.90
25708;DHT22;13567;61.652;17.100;2022-08-19T04:24:19;15.80;99.90
25708;DHT22;13567;61.652;17.100;2022-08-19T04:26:46;15.90;99.90
25708;DHT22;13567;61.652;17.100;2022-08-19T04:29:17;15.90;99.90
25708;DHT22;13567;61.652;17.100;2022-08-19T04:31:45;15.90;99.90
25708;DHT22;13567;61.652;17.100;2022-08-19T04:34:14;16.00;99.90
25708;DHT22;13567;61.652;17.100;2022-08-19T04:36:43;16.00;99.90
25708;DHT22;13567;61.652;17.100;2022-08-19T04:39:14;16.00;99.90
25708;DHT22;13567;61.652;17.100;2022-08-19T04:41:42;16.00;99.90
25708;DHT22;13567;61.652;17.100;2022-08-19T04:44:28;16.10;99.90
25708;DHT22;13567;61.652;17.100;2022-08-19T04:46:59;16.10;99.90
25708;DHT22;13567;61.652;17.100;2022-08-19T04:49:27;16.20;99.90
25708;DHT22;13567;61.652;17.100;2022-08-19T04:51:54;16.20;99.90
25708;DHT22;13567;61.652;17.100;2022-08-19T04:54:24;16.30;99.90
25708;DHT22;13567;61.652;17.100;2022-08-19T04:57:06;16.30;99.90
25708;DHT22;13567;61.652;17.100;2022-08-19T04:59:37;16.40;99.90
25708;DHT22;13567;61.652;17.100;2022-08-19T05:02:04;16.30;99.90
25708;DHT22;13567;61.652;17.100;2022-08-19T05:04:33;16.30;99.90
25708;DHT22;13567;61.652;17.100;2022-08-19T05:07:00;16.40;99.90
25708;DHT22;13567;61.652;17.100;2022-08-19T05:09:28;16.40;99.90
25708;DHT22;13567;61.652;17.100;2022-08-19T05:12:16;16.50;99.90
25708;DHT22;13567;61.652;17.100;2022-08-19T05:14:45;16.50;99.90
25708;DHT22;13567;61.652;17.100;2022-08-19T05:17:14;16.60;99.90
25708;DHT22;13567;61.652;17.100;2022-08-19T05:20:03;16.60;99.90
25708;DHT22;13567;61.652;17.100;2022-08-19T05:22:49;16.70;99.90
25708;DHT22;13567;61.652;17.100;2022-08-19T05:25:20;16.80;99.90
25708;DHT22;13567;61.652;17.100;2022-08-19T05:27:48;16.90;99.90
25708;DHT22;13567;61.652;17.100;2022-08-19T05:30:15;17.00;99.90
25708;DHT22;13567;61.652;17.100;2022-08-19T05:32:43;17.00;99.90
25708;DHT22;13567;61.652;17.100;2022-08-19T05:35:10;17.10;99.90
25708;DHT22;13567;61.652;17.100;2022-08-19T05:37:38;17.10;99.90
25708;DHT22;13567;61.652;17.100;2022-08-19T05:40:08;17.20;99.90
25708;DHT22;13567;61.652;17.100;2022-08-19T05:42:36;17.20;99.90
25708;DHT22;13567;61.652;17.100;2022-08-19T05:45:04;17.20;99.90
25708;DHT22;13567;61.652;17.100;2022-08-19T05:47:31;17.30;99.90
25708;DHT22;13567;61.652;17.100;2022-08-19T05:49:59;17.30;99.90
25708;DHT22;13567;61.652;17.100;2022-08-19T05:52:30;17.30;99.90
25708;DHT22;13567;61.652;17.100;2022-08-19T05:54:59;17.20;99.90
25708;DHT22;13567;61.652;17.100;2022-08-19T05:57:26;17.20;99.90
25708;DHT22;13567;61.652;17.100;2022-08-19T05:59:56;17.30;99.90
25708;DHT22;13567;61.652;17.100;2022-08-19T06:02:30;17.30;99.90
25708;DHT22;13567;61.652;17.100;2022-08-19T06:04:58;17.40;99.90
25708;DHT22;13567;61.652;17.100;2022-08-19T06:07:25;17.40;99.90
25708;DHT22;13567;61.652;17.100;2022-08-19T06:09:52;17.60;99.90
25708;DHT22;13567;61.652;17.100;2022-08-19T06:12:27;17.60;99.90
25708;DHT22;13567;61.652;17.100;2022-08-19T06:15:00;17.70;99.90
25708;DHT22;13567;61.652;17.100;2022-08-19T06:17:28;17.70;99.90
25708;DHT22;13567;61.652;17.100;2022-08-19T06:19:58;17.70;99.90
25708;DHT22;13567;61.652;17.100;2022-08-19T06:22:26;17.70;99.90
25708;DHT22;13567;61.652;17.100;2022-08-19T06:24:55;17.70;99.90
25708;DHT22;13567;61.652;17.100;2022-08-19T06:27:23;17.70;99.90
25708;DHT22;13567;61.652;17.100;2022-08-19T06:29:50;17.70;99.90
25708;DHT22;13567;61.652;17.100;2022-08-19T06:32:17;17.70;99.90
25708;DHT22;13567;61.652;17.100;2022-08-19T06:34:46;17.70;99.90
25708;DHT22;13567;61.652;17.100;2022-08-19T06:37:14;17.80;99.90
25708;DHT22;13567;61.652;17.100;2022-08-19T06:39:43;18.00;99.90
25708;DHT22;13567;61.652;17.100;2022-08-19T06:42:11;18.00;99.90
25708;DHT22;13567;61.652;17.100;2022-08-19T06:44:45;18.00;99.90
25708;DHT22;13567;61.652;17.100;2022-08-19T06:47:18;18.00;99.90
25708;DHT22;13567;61.652;17.100;2022-08-19T06:49:54;18.20;99.90
25708;DHT22;13567;61.652;17.100;2022-08-19T06:52:33;18.30;99.90
25708;DHT22;13567;61.652;17.100;2022-08-19T06:55:03;18.40;99.90
25708;DHT22;13567;61.652;17.100;2022-08-19T06:57:32;18.40;99.90
25708;DHT22;13567;61.652;17.100;2022-08-19T06:59:59;18.50;99.90
25708;DHT22;13567;61.652;17.100;2022-08-19T07:02:26;18.40;99.90
25708;DHT22;13567;61.652;17.100;2022-08-19T07:04:54;18.50;99.90
25708;DHT22;13567;61.652;17.100;2022-08-19T07:07:23;18.50;99.90
25708;DHT22;13567;61.652;17.100;2022-08-19T07:09:50;18.50;99.90
25708;DHT22;13567;61.652;17.100;2022-08-19T07:12:31;18.60;99.90
25708;DHT22;13567;61.652;17.100;2022-08-19T07:15:04;18.90;99.90
25708;DHT22;13567;61.652;17.100;2022-08-19T07:17:31;19.00;99.90
25708;DHT22;13567;61.652;17.100;2022-08-19T07:20:00;19.10;99.90
25708;DHT22;13567;61.652;17.100;2022-08-19T07:22:33;19.20;99.90
25708;DHT22;13567;61.652;17.100;2022-08-19T07:25:00;19.40;99.90
25708;DHT22;13567;61.652;17.100;2022-08-19T07:27:30;19.70;99.90
25708;DHT22;13567;61.652;17.100;2022-08-19T07:30:00;20.00;99.90
25708;DHT22;13567;61.652;17.100;2022-08-19T07:32:27;20.00;99.90
25708;DHT22;13567;61.652;17.100;2022-08-19T07:34:54;19.80;99.90
25708;DHT22;13567;61.652;17.100;2022-08-19T07:37:24;19.40;99.90
25708;DHT22;13567;61.652;17.100;2022-08-19T07:39:58;19.40;99.90
25708;DHT22;13567;61.652;17.100;2022-08-19T07:42:25;19.20;99.90
25708;DHT22;13567;61.652;17.100;2022-08-19T07:44:53;19.00;99.90
25708;DHT22;13567;61.652;17.100;2022-08-19T07:47:20;18.90;99.90
25708;DHT22;13567;61.652;17.100;2022-08-19T07:50:09;18.90;99.90
25708;DHT22;13567;61.652;17.100;2022-08-19T07:52:38;18.80;99.90
25708;DHT22;13567;61.652;17.100;2022-08-19T07:55:08;18.60;99.90
25708;DHT22;13567;61.652;17.100;2022-08-19T07:57:57;18.40;99.90
25708;DHT22;13567;61.652;17.100;2022-08-19T08:00:24;18.30;99.90
25708;DHT22;13567;61.652;17.100;2022-08-19T08:02:52;18.20;99.90
25708;DHT22;13567;61.652;17.100;2022-08-19T08:05:25;18.20;99.90
25708;DHT22;13567;61.652;17.100;2022-08-19T08:08:14;18.10;99.90
25708;DHT22;13567;61.652;17.100;2022-08-19T08:11:00;18.00;99.90
25708;DHT22;13567;61.652;17.100;2022-08-19T08:13:27;17.80;99.90
25708;DHT22;13567;61.652;17.100;2022-08-19T08:15:55;17.70;99.90
25708;DHT22;13567;61.652;17.100;2022-08-19T08:18:25;17.70;99.90
25708;DHT22;13567;61.652;17.100;2022-08-19T08:20:54;17.70;99.90
25708;DHT22;13567;61.652;17.100;2022-08-19T08:23:22;17.70;99.90
25708;DHT22;13567;61.652;17.100;2022-08-19T08:25:53;17.80;99.90
25708;DHT22;13567;61.652;17.100;2022-08-19T08:28:22;17.90;99.90
25708;DHT22;13567;61.652;17.100;2022-08-19T08:30:50;18.00;99.90
25708;DHT22;13567;61.652;17.100;2022-08-19T08:33:19;18.20;99.90
25708;DHT22;13567;61.652;17.100;2022-08-19T08:36:07;18.30;99.90
25708;DHT22;13567;61.652;17.100;2022-08-19T08:38:36;18.40;99.90
25708;DHT22;13567;61.652;17.100;2022-08-19T08:41:38;18.60;99.90
25708;DHT22;13567;61.652;17.100;2022-08-19T08:44:14;18.50;99.90
25708;DHT22;13567;61.652;17.100;2022-08-19T08:46:51;18.40;99.90
25708;DHT22;13567;61.652;17.100;2022-08-19T08:52:06;18.60;99.90
25708;DHT22;13567;61.652;17.100;2022-08-19T08:54:41;18.40;99.90
25708;DHT22;13567;61.652;17.100;2022-08-19T09:00:32;18.20;99.90
25708;DHT22;13567;61.652;17.100;2022-08-19T09:03:01;18.00;99.90
25708;DHT22;13567;61.652;17.100;2022-08-19T09:05:59;18.20;99.90
25708;DHT22;13567;61.652;17.100;2022-08-19T09:10:57;18.20;99.90
25708;DHT22;13567;61.652;17.100;2022-08-19T09:16:19;18.30;99.90
25708;DHT22;13567;61.652;17.100;2022-08-19T09:19:02;18.50;99.90
25708;DHT22;13567;61.652;17.100;2022-08-19T09:21:32;18.70;99.90
25708;DHT22;13567;61.652;17.100;2022-08-19T09:24:01;18.80;99.90
25708;DHT22;13567;61.652;17.100;2022-08-19T09:26:29;19.00;99.90
25708;DHT22;13567;61.652;17.100;2022-08-19T09:29:19;19.00;99.90
25708;DHT22;13567;61.652;17.100;2022-08-19T09:31:48;19.00;99.90
25708;DHT22;13567;61.652;17.100;2022-08-19T09:34:16;19.10;99.90
25708;DHT22;13567;61.652;17.100;2022-08-19T09:36:48;19.20;99.90
25708;DHT22;13567;61.652;17.100;2022-08-19T09:39:21;19.30;99.90
25708;DHT22;13567;61.652;17.100;2022-08-19T09:41:48;19.30;99.90
25708;DHT22;13567;61.652;17.100;2022-08-19T09:44:17;19.30;99.90
25708;DHT22;13567;61.652;17.100;2022-08-19T09:46:47;19.40;99.90
25708;DHT22;13567;61.652;17.100;2022-08-19T09:49:15;19.50;99.90
25708;DHT22;13567;61.652;17.100;2022-08-19T09:51:44;19.60;99.90
25708;DHT22;13567;61.652;17.100;2022-08-19T09:54:17;19.50;99.90
25708;DHT22;13567;61.652;17.100;2022-08-19T09:56:49;19.70;99.90
25708;DHT22;13567;61.652;17.100;2022-08-19T09:59:16;19.60;99.90
25708;DHT22;13567;61.652;17.100;2022-08-19T10:01:43;19.60;99.90
25708;DHT22;13567;61.652;17.100;2022-08-19T10:04:11;19.60;99.90
25708;DHT22;13567;61.652;17.100;2022-08-19T10:06:45;19.70;99.90
25708;DHT22;13567;61.652;17.100;2022-08-19T10:09:20;19.70;99.90
25708;DHT22;13567;61.652;17.100;2022-08-19T10:12:01;19.70;99.90
25708;DHT22;13567;61.652;17.100;2022-08-19T10:14:29;19.70;99.90
25708;DHT22;13567;61.652;17.100;2022-08-19T10:16:57;19.80;99.90
25708;DHT22;13567;61.652;17.100;2022-08-19T10:19:25;19.80;99.90
25708;DHT22;13567;61.652;17.100;2022-08-19T10:21:53;19.90;99.90
25708;DHT22;13567;61.652;17.100;2022-08-19T10:24:26;19.90;99.90
25708;DHT22;13567;61.652;17.100;2022-08-19T10:26:55;19.90;99.90
25708;DHT22;13567;61.652;17.100;2022-08-19T10:29:26;20.10;99.90
25708;DHT22;13567;61.652;17.100;2022-08-19T10:32:00;20.20;99.90
25708;DHT22;13567;61.652;17.100;2022-08-19T10:34:29;20.20;99.90
25708;DHT22;13567;61.652;17.100;2022-08-19T10:36:59;19.90;99.90
25708;DHT22;13567;61.652;17.100;2022-08-19T10:39:36;20.00;99.90
25708;DHT22;13567;61.652;17.100;2022-08-19T10:42:09;19.80;99.90
25708;DHT22;13567;61.652;17.100;2022-08-19T10:44:40;19.80;99.90
25708;DHT22;13567;61.652;17.100;2022-08-19T10:47:08;19.90;99.90
25708;DHT22;13567;61.652;17.100;2022-08-19T10:49:52;19.80;99.90
25708;DHT22;13567;61.652;17.100;2022-08-19T10:52:46;19.70;99.90
25708;DHT22;13567;61.652;17.100;2022-08-19T10:55:19;19.60;99.90
25708;DHT22;13567;61.652;17.100;2022-08-19T10:58:14;19.50;99.90
25708;DHT22;13567;61.652;17.100;2022-08-19T11:00:42;19.60;99.90
25708;DHT22;13567;61.652;17.100;2022-08-19T11:03:12;19.60;99.90
25708;DHT22;13567;61.652;17.100;2022-08-19T11:05:39;19.70;99.90
25708;DHT22;13567;61.652;17.100;2022-08-19T11:08:08;19.80;99.90
25708;DHT22;13567;61.652;17.100;2022-08-19T11:10:51;19.90;99.90
25708;DHT22;13567;61.652;17.100;2022-08-19T11:13:20;20.10;99.90
25708;DHT22;13567;61.652;17.100;2022-08-19T11:16:00;20.30;99.90
25708;DHT22;13567;61.652;17.100;2022-08-19T11:18:34;20.60;99.90
25708;DHT22;13567;61.652;17.100;2022-08-19T11:21:09;20.60;99.90
25708;DHT22;13567;61.652;17.100;2022-08-19T11:23:36;20.50;99.90
25708;DHT22;13567;61.652;17.100;2022-08-19T11:26:04;20.70;99.90
25708;DHT22;13567;61.652;17.100;2022-08-19T11:28:31;20.90;99.90
25708;DHT22;13567;61.652;17.100;2022-08-19T11:30:58;20.70;99.90
25708;DHT22;13567;61.652;17.100;2022-08-19T11:33:25;20.60;99.90
25708;DHT22;13567;61.652;17.100;2022-08-19T11:35:53;20.50;99.90
25708;DHT22;13567;61.652;17.100;2022-08-19T11:38:21;20.40;99.90
25708;DHT22;13567;61.652;17.100;2022-08-19T11:40:55;20.50;99.90
25708;DHT22;13567;61.652;17.100;2022-08-19T11:43:22;20.30;99.90
25708;DHT22;13567;61.652;17.100;2022-08-19T11:45:49;20.30;99.90
25708;DHT22;13567;61.652;17.100;2022-08-19T11:48:16;20.10;99.90
25708;DHT22;13567;61.652;17.100;2022-08-19T11:50:52;20.00;99.90
25708;DHT22;13567;61.652;17.100;2022-08-19T11:53:22;19.80;99.90
25708;DHT22;13567;61.652;17.100;2022-08-19T11:55:50;19.80;99.90
25708;DHT22;13567;61.652;17.100;2022-08-19T11:58:20;19.60;99.90
25708;DHT22;13567;61.652;17.100;2022-08-19T12:00:47;19.50;99.90
25708;DHT22;13567;61.652;17.100;2022-08-19T12:03:14;19.30;99.90
25708;DHT22;13567;61.652;17.100;2022-08-19T12:05:41;19.20;99.90
25708;DHT22;13567;61.652;17.100;2022-08-19T12:08:08;19.40;99.90
25708;DHT22;13567;61.652;17.100;2022-08-19T12:10:36;19.60;99.90
25708;DHT22;13567;61.652;17.100;2022-08-19T12:13:03;19.50;99.90
25708;DHT22;13567;61.652;17.100;2022-08-19T12:15:30;19.50;99.90
25708;DHT22;13567;61.652;17.100;2022-08-19T12:18:04;19.60;99.90
25708;DHT22;13567;61.652;17.100;2022-08-19T12:20:35;19.60;99.90
25708;DHT22;13567;61.652;17.100;2022-08-19T12:23:03;19.60;99.90
25708;DHT22;13567;61.652;17.100;2022-08-19T12:25:30;19.70;99.90
25708;DHT22;13567;61.652;17.100;2022-08-19T12:27:58;19.80;99.90
25708;DHT22;13567;61.652;17.100;2022-08-19T12:30:26;20.00;99.90
25708;DHT22;13567;61.652;17.100;2022-08-19T12:32:53;19.90;99.90
25708;DHT22;13567;61.652;17.100;2022-08-19T12:35:20;19.90;99.90
25708;DHT22;13567;61.652;17.100;2022-08-19T12:37:48;19.90;99.90
25708;DHT22;13567;61.652;17.100;2022-08-19T12:40:23;20.00;99.90
25708;DHT22;13567;61.652;17.100;2022-08-19T12:42:53;20.00;99.90
25708;DHT22;13567;61.652;17.100;2022-08-19T12:45:20;20.10;99.90
25708;DHT22;13567;61.652;17.100;2022-08-19T12:47:47;20.10;99.90
25708;DHT22;13567;61.652;17.100;2022-08-19T12:50:15;20.00;99.90
25708;DHT22;13567;61.652;17.100;2022-08-19T12:52:42;19.70;99.90
25708;DHT22;13567;61.652;17.100;2022-08-19T12:55:10;19.40;99.90
25708;DHT22;13567;61.652;17.100;2022-08-19T12:57:38;19.40;99.90
25708;DHT22;13567;61.652;17.100;2022-08-19T13:00:07;19.30;99.90
25708;DHT22;13567;61.652;17.100;2022-08-19T13:02:40;19.40;99.90
25708;DHT22;13567;61.652;17.100;2022-08-19T13:05:09;19.40;99.90
25708;DHT22;13567;61.652;17.100;2022-08-19T13:07:37;19.30;99.90
25708;DHT22;13567;61.652;17.100;2022-08-19T13:10:08;19.40;99.90
25708;DHT22;13567;61.652;17.100;2022-08-19T13:12:35;19.40;99.90
25708;DHT22;13567;61.652;17.100;2022-08-19T13:15:02;19.40;99.90
25708;DHT22;13567;61.652;17.100;2022-08-19T13:17:37;19.40;99.90
25708;DHT22;13567;61.652;17.100;2022-08-19T13:20:06;19.40;99.90
25708;DHT22;13567;61.652;17.100;2022-08-19T13:22:35;19.60;99.90
25708;DHT22;13567;61.652;17.100;2022-08-19T13:25:06;19.80;99.90
25708;DHT22;13567;61.652;17.100;2022-08-19T13:27:34;20.10;99.90
25708;DHT22;13567;61.652;17.100;2022-08-19T13:30:02;20.20;99.90
25708;DHT22;13567;61.652;17.100;2022-08-19T13:32:48;20.20;99.90
25708;DHT22;13567;61.652;17.100;2022-08-19T13:35:34;20.10;99.90
25708;DHT22;13567;61.652;17.100;2022-08-19T13:38:01;19.90;99.90
25708;DHT22;13567;61.652;17.100;2022-08-19T13:40:38;19.80;99.90
25708;DHT22;13567;61.652;17.100;2022-08-19T13:43:07;19.60;99.90
25708;DHT22;13567;61.652;17.100;2022-08-19T13:45:53;19.60;99.90
25708;DHT22;13567;61.652;17.100;2022-08-19T13:48:24;19.70;99.90
25708;DHT22;13567;61.652;17.100;2022-08-19T13:50:53;19.80;99.90
25708;DHT22;13567;61.652;17.100;2022-08-19T13:53:21;19.80;99.90
25708;DHT22;13567;61.652;17.100;2022-08-19T13:55:48;19.70;99.90
25708;DHT22;13567;61.652;17.100;2022-08-19T13:58:17;19.80;99.90
25708;DHT22;13567;61.652;17.100;2022-08-19T14:00:45;19.80;99.90
25708;DHT22;13567;61.652;17.100;2022-08-19T14:03:13;19.90;99.90
25708;DHT22;13567;61.652;17.100;2022-08-19T14:05:40;19.90;99.90
25708;DHT22;13567;61.652;17.100;2022-08-19T14:08:07;19.90;99.90
25708;DHT22;13567;61.652;17.100;2022-08-19T14:10:35;20.00;99.90
25708;DHT22;13567;61.652;17.100;2022-08-19T14:13:03;20.20;99.90
25708;DHT22;13567;61.652;17.100;2022-08-19T14:15:30;20.50;99.90
25708;DHT22;13567;61.652;17.100;2022-08-19T14:17:58;20.20;99.90
25708;DHT22;13567;61.652;17.100;2022-08-19T14:20:26;20.00;99.90
25708;DHT22;13567;61.652;17.100;2022-08-19T14:22:54;19.90;99.90
25708;DHT22;13567;61.652;17.100;2022-08-19T14:25:24;20.10;99.90
25708;DHT22;13567;61.652;17.100;2022-08-19T14:27:51;20.30;99.90
25708;DHT22;13567;61.652;17.100;2022-08-19T14:30:27;20.40;99.90
25708;DHT22;13567;61.652;17.100;2022-08-19T14:32:56;20.80;99.90
25708;DHT22;13567;61.652;17.100;2022-08-19T14:35:26;21.20;99.90
25708;DHT22;13567;61.652;17.100;2022-08-19T14:37:54;21.30;99.90
25708;DHT22;13567;61.652;17.100;2022-08-19T14:40:26;21.30;99.90
25708;DHT22;13567;61.652;17.100;2022-08-19T14:42:58;21.40;99.90
25708;DHT22;13567;61.652;17.100;2022-08-19T14:45:28;21.40;99.90
25708;DHT22;13567;61.652;17.100;2022-08-19T14:47:55;21.40;99.90
25708;DHT22;13567;61.652;17.100;2022-08-19T14:50:22;21.10;99.90
25708;DHT22;13567;61.652;17.100;2022-08-19T14:52:54;20.60;99.90
25708;DHT22;13567;61.652;17.100;2022-08-19T14:55:25;20.50;99.90
25708;DHT22;13567;61.652;17.100;2022-08-19T14:57:52;20.20;99.90
25708;DHT22;13567;61.652;17.100;2022-08-19T15:00:19;20.10;99.90
25708;DHT22;13567;61.652;17.100;2022-08-19T15:02:46;20.20;99.90
25708;DHT22;13567;61.652;17.100;2022-08-19T15:05:13;20.10;99.90
25708;DHT22;13567;61.652;17.100;2022-08-19T15:07:42;20.20;99.90
25708;DHT22;13567;61.652;17.100;2022-08-19T15:10:11;20.30;99.90
25708;DHT22;13567;61.652;17.100;2022-08-19T15:12:39;20.40;99.90
25708;DHT22;13567;61.652;17.100;2022-08-19T15:15:11;20.40;99.90
25708;DHT22;13567;61.652;17.100;2022-08-19T15:17:44;20.30;99.90
25708;DHT22;13567;61.652;17.100;2022-08-19T15:20:16;20.40;99.90
25708;DHT22;13567;61.652;17.100;2022-08-19T15:22:44;20.50;99.90
25708;DHT22;13567;61.652;17.100;2022-08-19T15:25:13;20.60;99.90
25708;DHT22;13567;61.652;17.100;2022-08-19T15:27:41;20.70;99.90
25708;DHT22;13567;61.652;17.100;2022-08-19T15:30:09;20.90;99.90
25708;DHT22;13567;61.652;17.100;2022-08-19T15:32:38;21.20;99.90
25708;DHT22;13567;61.652;17.100;2022-08-19T15:35:06;21.30;99.90
25708;DHT22;13567;61.652;17.100;2022-08-19T15:37:34;21.30;99.90
25708;DHT22;13567;61.652;17.100;2022-08-19T15:40:05;21.50;99.90
25708;DHT22;13567;61.652;17.100;2022-08-19T15:42:37;21.90;99.90
25708;DHT22;13567;61.652;17.100;2022-08-19T15:45:06;22.50;99.90
25708;DHT22;13567;61.652;17.100;2022-08-19T15:47:33;23.00;99.90
25708;DHT22;13567;61.652;17.100;2022-08-19T15:50:19;23.10;99.90